sensor_id;sensor_type;location;lat;lon;timestamp;P1;durP1;ratioP1;P2;durP2;ratioP2
54935;SDS011;40838;50.676;7.838;2024-02-26T00:02:06;2.70;;;0.75;;
54935;SDS011;40838;50.676;7.838;2024-02-26T00:04:33;1.58;;;0.93;;
54935;SDS011;40838;50.676;7.838;2024-02-26T00:07:01;1.17;;;0.60;;
54935;SDS011;40838;50.676;7.838;2024-02-26T00:09:28;0.60;;;0.50;;
54935;SDS011;40838;50.676;7.838;2024-02-26T00:11:55;1.95;;;0.52;;
54935;SDS011;40838;50.676;7.838;2024-02-26T00:14:23;0.60;;;0.57;;
54935;SDS011;40838;50.676;7.838;2024-02-26T00:16:50;3.03;;;0.52;;
54935;SDS011;40838;50.676;7.838;2024-02-26T00:19:16;1.05;;;0.77;;
54935;SDS011;40838;50.676;7.838;2024-02-26T00:21:43;3.35;;;1.13;;
54935;SDS011;40838;50.676;7.838;2024-02-26T00:24:11;0.85;;;0.60;;
54935;SDS011;40838;50.676;7.838;2024-02-26T00:26:38;1.70;;;0.50;;
54935;SDS011;40838;50.676;7.838;2024-02-26T00:29:05;0.88;;;0.60;;
54935;SDS011;40838;50.676;7.838;2024-02-26T00:31:31;0.80;;;0.50;;
54935;SDS011;40838;50.676;7.838;2024-02-26T00:33:58;1.90;;;0.80;;
54935;SDS011;40838;50.676;7.838;2024-02-26T00:36:25;0.73;;;0.68;;
54935;SDS011;40838;50.676;7.838;2024-02-26T00:38:52;1.25;;;0.57;;
54935;SDS011;40838;50.676;7.838;2024-02-26T00:41:20;0.90;;;0.55;;
54935;SDS011;40838;50.676;7.838;2024-02-26T00:43:50;1.35;;;0.73;;
54935;SDS011;40838;50.676;7.838;2024-02-26T00:46:16;1.63;;;0.65;;
54935;SDS011;40838;50.676;7.838;2024-02-26T00:48:43;2.33;;;0.70;;
54935;SDS011;40838;50.676;7.838;2024-02-26T00:51:10;2.83;;;1.60;;
54935;SDS011;40838;50.676;7.838;2024-02-26T00:53:37;0.70;;;0.70;;
54935;SDS011;40838;50.676;7.838;2024-02-26T00:56:04;1.35;;;0.70;;
54935;SDS011;40838;50.676;7.838;2024-02-26T00:58:33;2.92;;;1.05;;
54935;SDS011;40838;50.676;7.838;2024-02-26T01:00:59;1.63;;;0.68;;
54935;SDS011;40838;50.676;7.838;2024-02-26T01:03:26;1.52;;;0.85;;
54935;SDS011;40838;50.676;7.838;2024-02-26T01:05:53;0.85;;;0.47;;
54935;SDS011;40838;50.676;7.838;2024-02-26T01:08:20;4.35;;;0.93;;
54935;SDS011;40838;50.676;7.838;2024-02-26T01:10:46;0.95;;;0.68;;
54935;SDS011;40838;50.676;7.838;2024-02-26T01:13:13;0.93;;;0.63;;
54935;SDS011;40838;50.676;7.838;2024-02-26T01:15:41;0.73;;;0.63;;
54935;SDS011;40838;50.676;7.838;2024-02-26T01:18:09;1.00;;;0.70;;
54935;SDS011;40838;50.676;7.838;2024-02-26T01:20:35;1.50;;;0.57;;
54935;SDS011;40838;50.676;7.838;2024-02-26T01:23:03;0.93;;;0.70;;
54935;SDS011;40838;50.676;7.838;2024-02-26T01:25:30;12.90;;;1.40;;
54935;SDS011;40838;50.676;7.838;2024-02-26T01:27:57;0.77;;;0.50;;
54935;SDS011;40838;50.676;7.838;2024-02-26T01:30:24;1.77;;;1.02;;
54935;SDS011;40838;50.676;7.838;2024-02-26T01:32:52;0.93;;;0.50;;
54935;SDS011;40838;50.676;7.838;2024-02-26T01:35:19;0.73;;;0.50;;
54935;SDS011;40838;50.676;7.838;2024-02-26T01:37:46;1.88;;;0.75;;
54935;SDS011;40838;50.676;7.838;2024-02-26T01:40:12;2.28;;;0.47;;
54935;SDS011;40838;50.676;7.838;2024-02-26T01:42:43;2.65;;;0.50;;
54935;SDS011;40838;50.676;7.838;2024-02-26T01:45:14;1.67;;;0.52;;
54935;SDS011;40838;50.676;7.838;2024-02-26T01:47:47;4.63;;;0.60;;
54935;SDS011;40838;50.676;7.838;2024-02-26T01:50:17;1.02;;;0.60;;
54935;SDS011;40838;50.676;7.838;2024-02-26T01:52:44;0.57;;;0.50;;
54935;SDS011;40838;50.676;7.838;2024-02-26T01:55:13;1.85;;;0.52;;
54935;SDS011;40838;50.676;7.838;2024-02-26T01:57:40;2.58;;;0.63;;
54935;SDS011;40838;50.676;7.838;2024-02-26T02:00:09;1.88;;;0.60;;
54935;SDS011;40838;50.676;7.838;2024-02-26T02:02:37;0.63;;;0.50;;
54935;SDS011;40838;50.676;7.838;2024-02-26T02:05:07;0.98;;;0.50;;
54935;SDS011;40838;50.676;7.838;2024-02-26T02:07:36;1.13;;;0.50;;
54935;SDS011;40838;50.676;7.838;2024-02-26T02:10:04;0.70;;;0.63;;
54935;SDS011;40838;50.676;7.838;2024-02-26T02:12:32;1.38;;;0.50;;
54935;SDS011;40838;50.676;7.838;2024-02-26T02:14:59;2.78;;;0.70;;
54935;SDS011;40838;50.676;7.838;2024-02-26T02:17:27;3.25;;;0.55;;
54935;SDS011;40838;50.676;7.838;2024-02-26T02:19:54;0.77;;;0.50;;
54935;SDS011;40838;50.676;7.838;2024-02-26T02:22:22;0.40;;;0.40;;
54935;SDS011;40838;50.676;7.838;2024-02-26T02:24:52;1.02;;;0.55;;
54935;SDS011;40838;50.676;7.838;2024-02-26T02:27:19;1.08;;;0.57;;
54935;SDS011;40838;50.676;7.838;2024-02-26T02:29:47;0.90;;;0.40;;
54935;SDS011;40838;50.676;7.838;2024-02-26T02:32:15;0.30;;;0.30;;
54935;SDS011;40838;50.676;7.838;2024-02-26T02:34:43;0.30;;;0.30;;
54935;SDS011;40838;50.676;7.838;2024-02-26T02:37:11;0.35;;;0.35;;
54935;SDS011;40838;50.676;7.838;2024-02-26T02:39:39;0.47;;;0.40;;
54935;SDS011;40838;50.676;7.838;2024-02-26T02:42:08;0.80;;;0.50;;
54935;SDS011;40838;50.676;7.838;2024-02-26T02:44:35;1.58;;;0.80;;
54935;SDS011;40838;50.676;7.838;2024-02-26T02:47:03;1.75;;;0.68;;
54935;SDS011;40838;50.676;7.838;2024-02-26T02:49:30;1.00;;;0.60;;
54935;SDS011;40838;50.676;7.838;2024-02-26T02:51:57;0.60;;;0.60;;
54935;SDS011;40838;50.676;7.838;2024-02-26T02:54:24;0.60;;;0.60;;
54935;SDS011;40838;50.676;7.838;2024-02-26T02:56:52;0.90;;;0.60;;
54935;SDS011;40838;50.676;7.838;2024-02-26T02:59:19;1.20;;;0.65;;
54935;SDS011;40838;50.676;7.838;2024-02-26T03:01:46;1.13;;;0.40;;
54935;SDS011;40838;50.676;7.838;2024-02-26T03:04:13;0.88;;;0.40;;
54935;SDS011;40838;50.676;7.838;2024-02-26T03:06:40;2.55;;;0.70;;
54935;SDS011;40838;50.676;7.838;2024-02-26T03:09:07;4.20;;;0.90;;
54935;SDS011;40838;50.676;7.838;2024-02-26T03:11:34;0.73;;;0.50;;
54935;SDS011;40838;50.676;7.838;2024-02-26T03:14:03;1.27;;;0.70;;
54935;SDS011;40838;50.676;7.838;2024-02-26T03:16:31;2.75;;;0.65;;
54935;SDS011;40838;50.676;7.838;2024-02-26T03:18:59;0.93;;;0.50;;
54935;SDS011;40838;50.676;7.838;2024-02-26T03:21:26;0.52;;;0.47;;
54935;SDS011;40838;50.676;7.838;2024-02-26T03:23:53;0.57;;;0.43;;
54935;SDS011;40838;50.676;7.838;2024-02-26T03:26:21;0.82;;;0.55;;
54935;SDS011;40838;50.676;7.838;2024-02-26T03:28:48;0.65;;;0.50;;
54935;SDS011;40838;50.676;7.838;2024-02-26T03:31:16;1.85;;;0.50;;
54935;SDS011;40838;50.676;7.838;2024-02-26T03:33:43;0.70;;;0.50;;
54935;SDS011;40838;50.676;7.838;2024-02-26T03:36:10;0.70;;;0.60;;
54935;SDS011;40838;50.676;7.838;2024-02-26T03:38:37;0.63;;;0.50;;
54935;SDS011;40838;50.676;7.838;2024-02-26T03:41:04;0.93;;;0.70;;
54935;SDS011;40838;50.676;7.838;2024-02-26T03:43:33;1.88;;;0.52;;
54935;SDS011;40838;50.676;7.838;2024-02-26T03:46:00;2.72;;;0.45;;
54935;SDS011;40838;50.676;7.838;2024-02-26T03:48:29;1.05;;;0.50;;
54935;SDS011;40838;50.676;7.838;2024-02-26T03:50:56;0.77;;;0.50;;
54935;SDS011;40838;50.676;7.838;2024-02-26T03:53:23;1.30;;;0.60;;
54935;SDS011;40838;50.676;7.838;2024-02-26T03:55:50;1.00;;;0.60;;
54935;SDS011;40838;50.676;7.838;2024-02-26T03:58:18;1.95;;;0.65;;
54935;SDS011;40838;50.676;7.838;2024-02-26T04:00:44;0.82;;;0.55;;
54935;SDS011;40838;50.676;7.838;2024-02-26T04:03:13;0.88;;;0.70;;
54935;SDS011;40838;50.676;7.838;2024-02-26T04:05:41;1.70;;;0.57;;
54935;SDS011;40838;50.676;7.838;2024-02-26T04:08:08;2.50;;;0.80;;
54935;SDS011;40838;50.676;7.838;2024-02-26T04:10:36;0.82;;;0.70;;
54935;SDS011;40838;50.676;7.838;2024-02-26T04:13:04;2.30;;;0.63;;
54935;SDS011;40838;50.676;7.838;2024-02-26T04:15:31;3.05;;;0.90;;
54935;SDS011;40838;50.676;7.838;2024-02-26T04:17:58;0.80;;;0.45;;
54935;SDS011;40838;50.676;7.838;2024-02-26T04:20:24;3.03;;;1.15;;
54935;SDS011;40838;50.676;7.838;2024-02-26T04:22:53;1.48;;;1.08;;
54935;SDS011;40838;50.676;7.838;2024-02-26T04:25:19;0.85;;;0.75;;
54935;SDS011;40838;50.676;7.838;2024-02-26T04:27:46;1.42;;;1.13;;
54935;SDS011;40838;50.676;7.838;2024-02-26T04:30:13;0.82;;;0.80;;
54935;SDS011;40838;50.676;7.838;2024-02-26T04:32:40;0.88;;;0.70;;
54935;SDS011;40838;50.676;7.838;2024-02-26T04:35:07;1.80;;;1.10;;
54935;SDS011;40838;50.676;7.838;2024-02-26T04:37:34;1.77;;;1.10;;
54935;SDS011;40838;50.676;7.838;2024-02-26T04:40:02;0.80;;;0.80;;
54935;SDS011;40838;50.676;7.838;2024-02-26T04:42:30;1.45;;;1.10;;
54935;SDS011;40838;50.676;7.838;2024-02-26T04:44:56;2.83;;;1.08;;
54935;SDS011;40838;50.676;7.838;2024-02-26T04:47:23;1.15;;;0.85;;
54935;SDS011;40838;50.676;7.838;2024-02-26T04:49:50;1.58;;;0.98;;
54935;SDS011;40838;50.676;7.838;2024-02-26T04:52:18;3.58;;;1.20;;
54935;SDS011;40838;50.676;7.838;2024-02-26T04:54:45;2.42;;;1.63;;
54935;SDS011;40838;50.676;7.838;2024-02-26T04:57:13;1.30;;;1.20;;
54935;SDS011;40838;50.676;7.838;2024-02-26T04:59:40;9.35;;;1.55;;
54935;SDS011;40838;50.676;7.838;2024-02-26T05:02:07;1.38;;;1.27;;
54935;SDS011;40838;50.676;7.838;2024-02-26T05:04:34;3.35;;;1.33;;
54935;SDS011;40838;50.676;7.838;2024-02-26T05:07:01;2.47;;;0.98;;
54935;SDS011;40838;50.676;7.838;2024-02-26T05:09:28;1.90;;;1.45;;
54935;SDS011;40838;50.676;7.838;2024-02-26T05:11:55;1.60;;;1.15;;
54935;SDS011;40838;50.676;7.838;2024-02-26T05:14:23;2.03;;;1.45;;
54935;SDS011;40838;50.676;7.838;2024-02-26T05:16:50;3.10;;;1.45;;
54935;SDS011;40838;50.676;7.838;2024-02-26T05:19:17;1.92;;;1.42;;
54935;SDS011;40838;50.676;7.838;2024-02-26T05:21:44;3.63;;;1.45;;
54935;SDS011;40838;50.676;7.838;2024-02-26T05:24:12;2.50;;;1.60;;
54935;SDS011;40838;50.676;7.838;2024-02-26T05:26:40;2.83;;;1.40;;
54935;SDS011;40838;50.676;7.838;2024-02-26T05:29:07;3.85;;;1.60;;
54935;SDS011;40838;50.676;7.838;2024-02-26T05:31:35;2.97;;;1.75;;
54935;SDS011;40838;50.676;7.838;2024-02-26T05:34:02;3.00;;;2.22;;
54935;SDS011;40838;50.676;7.838;2024-02-26T05:36:29;2.72;;;1.67;;
54935;SDS011;40838;50.676;7.838;2024-02-26T05:38:58;2.95;;;1.67;;
54935;SDS011;40838;50.676;7.838;2024-02-26T05:41:25;4.25;;;2.00;;
54935;SDS011;40838;50.676;7.838;2024-02-26T05:43:52;5.00;;;2.05;;
54935;SDS011;40838;50.676;7.838;2024-02-26T05:46:19;3.83;;;2.03;;
54935;SDS011;40838;50.676;7.838;2024-02-26T05:48:48;2.25;;;1.60;;
54935;SDS011;40838;50.676;7.838;2024-02-26T05:51:16;4.85;;;1.73;;
54935;SDS011;40838;50.676;7.838;2024-02-26T05:53:43;3.20;;;2.08;;
54935;SDS011;40838;50.676;7.838;2024-02-26T05:56:12;2.97;;;1.65;;
54935;SDS011;40838;50.676;7.838;2024-02-26T05:58:38;3.00;;;1.70;;
54935;SDS011;40838;50.676;7.838;2024-02-26T06:01:05;3.90;;;1.73;;
54935;SDS011;40838;50.676;7.838;2024-02-26T06:03:32;2.58;;;1.55;;
54935;SDS011;40838;50.676;7.838;2024-02-26T06:06:00;2.08;;;1.65;;
54935;SDS011;40838;50.676;7.838;2024-02-26T06:08:27;2.17;;;1.52;;
54935;SDS011;40838;50.676;7.838;2024-02-26T06:10:54;2.88;;;1.80;;
54935;SDS011;40838;50.676;7.838;2024-02-26T06:13:21;2.17;;;1.38;;
54935;SDS011;40838;50.676;7.838;2024-02-26T06:15:48;2.65;;;1.60;;
54935;SDS011;40838;50.676;7.838;2024-02-26T06:18:15;2.58;;;1.50;;
54935;SDS011;40838;50.676;7.838;2024-02-26T06:20:41;8.57;;;2.50;;
54935;SDS011;40838;50.676;7.838;2024-02-26T06:23:10;2.40;;;1.80;;
54935;SDS011;40838;50.676;7.838;2024-02-26T06:25:36;2.75;;;1.48;;
54935;SDS011;40838;50.676;7.838;2024-02-26T06:28:03;6.97;;;1.70;;
54935;SDS011;40838;50.676;7.838;2024-02-26T06:30:31;1.85;;;1.58;;
54935;SDS011;40838;50.676;7.838;2024-02-26T06:32:58;2.35;;;1.67;;
54935;SDS011;40838;50.676;7.838;2024-02-26T06:35:25;2.67;;;1.42;;
54935;SDS011;40838;50.676;7.838;2024-02-26T06:37:52;2.80;;;1.50;;
54935;SDS011;40838;50.676;7.838;2024-02-26T06:40:20;2.47;;;1.70;;
54935;SDS011;40838;50.676;7.838;2024-02-26T06:42:47;5.72;;;1.63;;
54935;SDS011;40838;50.676;7.838;2024-02-26T06:45:15;2.50;;;1.50;;
54935;SDS011;40838;50.676;7.838;2024-02-26T06:47:42;2.22;;;1.60;;
54935;SDS011;40838;50.676;7.838;2024-02-26T06:50:09;2.08;;;1.35;;
54935;SDS011;40838;50.676;7.838;2024-02-26T06:52:37;2.70;;;1.52;;
54935;SDS011;40838;50.676;7.838;2024-02-26T06:55:04;3.47;;;2.00;;
54935;SDS011;40838;50.676;7.838;2024-02-26T06:57:35;2.88;;;1.88;;
54935;SDS011;40838;50.676;7.838;2024-02-26T07:00:02;3.50;;;1.85;;
54935;SDS011;40838;50.676;7.838;2024-02-26T07:02:30;2.38;;;1.45;;
54935;SDS011;40838;50.676;7.838;2024-02-26T07:04:57;3.35;;;1.83;;
54935;SDS011;40838;50.676;7.838;2024-02-26T07:07:24;4.50;;;2.13;;
54935;SDS011;40838;50.676;7.838;2024-02-26T07:09:51;4.63;;;3.00;;
54935;SDS011;40838;50.676;7.838;2024-02-26T07:12:17;4.18;;;2.42;;
54935;SDS011;40838;50.676;7.838;2024-02-26T07:14:46;6.20;;;2.35;;
54935;SDS011;40838;50.676;7.838;2024-02-26T07:17:12;2.97;;;1.67;;
54935;SDS011;40838;50.676;7.838;2024-02-26T07:19:41;4.07;;;1.80;;
54935;SDS011;40838;50.676;7.838;2024-02-26T07:22:08;4.07;;;2.25;;
54935;SDS011;40838;50.676;7.838;2024-02-26T07:24:35;2.90;;;2.17;;
54935;SDS011;40838;50.676;7.838;2024-02-26T07:27:02;2.03;;;1.70;;
54935;SDS011;40838;50.676;7.838;2024-02-26T07:29:29;2.75;;;1.70;;
54935;SDS011;40838;50.676;7.838;2024-02-26T07:31:57;3.50;;;2.33;;
54935;SDS011;40838;50.676;7.838;2024-02-26T07:34:24;2.65;;;2.08;;
54935;SDS011;40838;50.676;7.838;2024-02-26T07:36:54;2.67;;;2.20;;
54935;SDS011;40838;50.676;7.838;2024-02-26T07:39:21;4.90;;;2.03;;
54935;SDS011;40838;50.676;7.838;2024-02-26T07:41:48;3.00;;;2.10;;
54935;SDS011;40838;50.676;7.838;2024-02-26T07:44:17;5.85;;;2.30;;
54935;SDS011;40838;50.676;7.838;2024-02-26T07:46:44;3.50;;;2.38;;
54935;SDS011;40838;50.676;7.838;2024-02-26T07:49:12;4.55;;;2.53;;
54935;SDS011;40838;50.676;7.838;2024-02-26T07:51:39;4.00;;;2.55;;
54935;SDS011;40838;50.676;7.838;2024-02-26T07:54:06;5.70;;;3.65;;
54935;SDS011;40838;50.676;7.838;2024-02-26T07:56:32;4.68;;;2.72;;
54935;SDS011;40838;50.676;7.838;2024-02-26T07:58:59;5.70;;;3.15;;
54935;SDS011;40838;50.676;7.838;2024-02-26T08:01:26;9.10;;;2.70;;
54935;SDS011;40838;50.676;7.838;2024-02-26T08:03:53;5.60;;;2.40;;
54935;SDS011;40838;50.676;7.838;2024-02-26T08:06:22;5.88;;;2.65;;
54935;SDS011;40838;50.676;7.838;2024-02-26T08:08:49;4.40;;;2.58;;
54935;SDS011;40838;50.676;7.838;2024-02-26T08:11:16;3.65;;;2.50;;
54935;SDS011;40838;50.676;7.838;2024-02-26T08:13:43;3.72;;;2.28;;
54935;SDS011;40838;50.676;7.838;2024-02-26T08:16:10;3.45;;;2.30;;
54935;SDS011;40838;50.676;7.838;2024-02-26T08:18:39;5.80;;;3.15;;
54935;SDS011;40838;50.676;7.838;2024-02-26T08:21:06;3.65;;;2.17;;
54935;SDS011;40838;50.676;7.838;2024-02-26T08:23:35;4.00;;;2.08;;
54935;SDS011;40838;50.676;7.838;2024-02-26T08:26:02;3.33;;;1.90;;
54935;SDS011;40838;50.676;7.838;2024-02-26T08:28:32;3.20;;;2.00;;
54935;SDS011;40838;50.676;7.838;2024-02-26T08:30:59;3.53;;;2.22;;
54935;SDS011;40838;50.676;7.838;2024-02-26T08:33:26;3.08;;;2.05;;
54935;SDS011;40838;50.676;7.838;2024-02-26T08:35:52;4.03;;;2.17;;
54935;SDS011;40838;50.676;7.838;2024-02-26T08:38:19;2.47;;;1.90;;
54935;SDS011;40838;50.676;7.838;2024-02-26T08:40:48;3.55;;;2.10;;
54935;SDS011;40838;50.676;7.838;2024-02-26T08:43:14;3.55;;;2.13;;
54935;SDS011;40838;50.676;7.838;2024-02-26T08:45:41;4.20;;;2.00;;
54935;SDS011;40838;50.676;7.838;2024-02-26T08:48:08;5.18;;;2.60;;
54935;SDS011;40838;50.676;7.838;2024-02-26T08:50:35;2.50;;;1.88;;
54935;SDS011;40838;50.676;7.838;2024-02-26T08:53:01;2.22;;;1.80;;
54935;SDS011;40838;50.676;7.838;2024-02-26T08:55:29;3.03;;;1.98;;
54935;SDS011;40838;50.676;7.838;2024-02-26T08:57:57;2.38;;;1.48;;
54935;SDS011;40838;50.676;7.838;2024-02-26T09:00:24;4.05;;;2.47;;
54935;SDS011;40838;50.676;7.838;2024-02-26T09:02:51;4.07;;;2.10;;
54935;SDS011;40838;50.676;7.838;2024-02-26T09:05:18;4.30;;;2.20;;
54935;SDS011;40838;50.676;7.838;2024-02-26T09:07:45;5.45;;;2.50;;
54935;SDS011;40838;50.676;7.838;2024-02-26T09:10:12;3.80;;;2.13;;
54935;SDS011;40838;50.676;7.838;2024-02-26T09:12:39;3.88;;;2.15;;
54935;SDS011;40838;50.676;7.838;2024-02-26T09:15:08;3.55;;;2.13;;
54935;SDS011;40838;50.676;7.838;2024-02-26T09:17:35;3.05;;;2.22;;
54935;SDS011;40838;50.676;7.838;2024-02-26T09:20:02;5.43;;;2.08;;
54935;SDS011;40838;50.676;7.838;2024-02-26T09:22:30;3.40;;;2.20;;
54935;SDS011;40838;50.676;7.838;2024-02-26T09:24:57;4.05;;;2.40;;
54935;SDS011;40838;50.676;7.838;2024-02-26T09:27:24;4.88;;;2.08;;
54935;SDS011;40838;50.676;7.838;2024-02-26T09:29:51;5.38;;;2.40;;
54935;SDS011;40838;50.676;7.838;2024-02-26T09:32:19;4.22;;;1.98;;
54935;SDS011;40838;50.676;7.838;2024-02-26T09:34:46;3.90;;;2.50;;
54935;SDS011;40838;50.676;7.838;2024-02-26T09:37:13;2.63;;;1.98;;
54935;SDS011;40838;50.676;7.838;2024-02-26T09:39:39;4.53;;;3.05;;
54935;SDS011;40838;50.676;7.838;2024-02-26T09:42:06;6.25;;;2.90;;
54935;SDS011;40838;50.676;7.838;2024-02-26T09:44:36;4.72;;;1.92;;
54935;SDS011;40838;50.676;7.838;2024-02-26T09:47:07;5.60;;;2.30;;
54935;SDS011;40838;50.676;7.838;2024-02-26T09:49:38;4.50;;;2.13;;
54935;SDS011;40838;50.676;7.838;2024-02-26T09:52:05;3.75;;;2.95;;
54935;SDS011;40838;50.676;7.838;2024-02-26T09:54:34;3.75;;;2.28;;
54935;SDS011;40838;50.676;7.838;2024-02-26T09:57:02;4.68;;;2.58;;
54935;SDS011;40838;50.676;7.838;2024-02-26T09:59:33;6.88;;;2.67;;
54935;SDS011;40838;50.676;7.838;2024-02-26T10:02:05;4.60;;;3.15;;
54935;SDS011;40838;50.676;7.838;2024-02-26T10:04:35;5.22;;;3.10;;
54935;SDS011;40838;50.676;7.838;2024-02-26T10:07:04;4.28;;;2.63;;
54935;SDS011;40838;50.676;7.838;2024-02-26T10:09:32;4.03;;;2.58;;
54935;SDS011;40838;50.676;7.838;2024-02-26T10:11:59;5.15;;;2.50;;
54935;SDS011;40838;50.676;7.838;2024-02-26T10:14:25;3.97;;;2.58;;
54935;SDS011;40838;50.676;7.838;2024-02-26T10:16:52;3.67;;;2.97;;
54935;SDS011;40838;50.676;7.838;2024-02-26T10:19:24;6.47;;;3.10;;
54935;SDS011;40838;50.676;7.838;2024-02-26T10:21:54;3.75;;;2.50;;
54935;SDS011;40838;50.676;7.838;2024-02-26T10:24:24;4.47;;;2.80;;
54935;SDS011;40838;50.676;7.838;2024-02-26T10:26:51;6.40;;;3.25;;
54935;SDS011;40838;50.676;7.838;2024-02-26T10:29:18;6.40;;;3.15;;
54935;SDS011;40838;50.676;7.838;2024-02-26T10:31:45;5.35;;;2.40;;
54935;SDS011;40838;50.676;7.838;2024-02-26T10:34:13;3.88;;;2.60;;
54935;SDS011;40838;50.676;7.838;2024-02-26T10:36:41;6.07;;;3.75;;
54935;SDS011;40838;50.676;7.838;2024-02-26T10:39:09;5.68;;;3.28;;
54935;SDS011;40838;50.676;7.838;2024-02-26T10:41:39;5.47;;;2.90;;
54935;SDS011;40838;50.676;7.838;2024-02-26T10:44:07;3.65;;;2.35;;
54935;SDS011;40838;50.676;7.838;2024-02-26T10:46:35;3.50;;;2.40;;
54935;SDS011;40838;50.676;7.838;2024-02-26T10:49:03;3.10;;;2.50;;
54935;SDS011;40838;50.676;7.838;2024-02-26T10:51:31;4.03;;;2.40;;
54935;SDS011;40838;50.676;7.838;2024-02-26T10:53:59;5.13;;;2.80;;
54935;SDS011;40838;50.676;7.838;2024-02-26T10:56:27;3.95;;;2.47;;
54935;SDS011;40838;50.676;7.838;2024-02-26T10:58:56;4.95;;;2.75;;
54935;SDS011;40838;50.676;7.838;2024-02-26T11:01:24;6.00;;;2.78;;
54935;SDS011;40838;50.676;7.838;2024-02-26T11:03:52;3.90;;;2.20;;
54935;SDS011;40838;50.676;7.838;2024-02-26T11:06:19;3.47;;;2.20;;
54935;SDS011;40838;50.676;7.838;2024-02-26T11:08:47;5.05;;;2.45;;
54935;SDS011;40838;50.676;7.838;2024-02-26T11:11:15;3.70;;;2.25;;
54935;SDS011;40838;50.676;7.838;2024-02-26T11:13:42;4.82;;;2.42;;
54935;SDS011;40838;50.676;7.838;2024-02-26T11:16:16;5.95;;;3.50;;
54935;SDS011;40838;50.676;7.838;2024-02-26T11:18:44;3.95;;;2.22;;
54935;SDS011;40838;50.676;7.838;2024-02-26T11:21:14;5.30;;;2.35;;
54935;SDS011;40838;50.676;7.838;2024-02-26T11:23:42;4.38;;;2.85;;
54935;SDS011;40838;50.676;7.838;2024-02-26T11:26:09;4.78;;;3.15;;
54935;SDS011;40838;50.676;7.838;2024-02-26T11:28:38;3.45;;;2.20;;
54935;SDS011;40838;50.676;7.838;2024-02-26T11:31:05;3.47;;;2.00;;
54935;SDS011;40838;50.676;7.838;2024-02-26T11:33:34;4.13;;;2.50;;
54935;SDS011;40838;50.676;7.838;2024-02-26T11:36:02;4.45;;;2.55;;
54935;SDS011;40838;50.676;7.838;2024-02-26T11:38:34;4.93;;;2.72;;
54935;SDS011;40838;50.676;7.838;2024-02-26T11:41:00;3.15;;;2.70;;
54935;SDS011;40838;50.676;7.838;2024-02-26T11:46:24;4.90;;;3.00;;
54935;SDS011;40838;50.676;7.838;2024-02-26T11:48:55;4.47;;;2.65;;
54935;SDS011;40838;50.676;7.838;2024-02-26T11:51:27;3.00;;;2.30;;
54935;SDS011;40838;50.676;7.838;2024-02-26T11:53:58;4.88;;;2.55;;
54935;SDS011;40838;50.676;7.838;2024-02-26T11:56:25;3.85;;;2.25;;
54935;SDS011;40838;50.676;7.838;2024-02-26T11:58:57;2.95;;;2.10;;
54935;SDS011;40838;50.676;7.838;2024-02-26T12:01:40;4.40;;;2.25;;
54935;SDS011;40838;50.676;7.838;2024-02-26T12:04:15;2.47;;;1.90;;
54935;SDS011;40838;50.676;7.838;2024-02-26T12:06:45;1.63;;;1.50;;
54935;SDS011;40838;50.676;7.838;2024-02-26T12:12:02;3.35;;;2.08;;
54935;SDS011;40838;50.676;7.838;2024-02-26T12:14:32;3.80;;;1.90;;
54935;SDS011;40838;50.676;7.838;2024-02-26T12:17:01;2.17;;;1.80;;
54935;SDS011;40838;50.676;7.838;2024-02-26T12:19:33;5.30;;;2.38;;
54935;SDS011;40838;50.676;7.838;2024-02-26T12:22:01;3.97;;;2.17;;
54935;SDS011;40838;50.676;7.838;2024-02-26T12:24:28;4.32;;;2.40;;
54935;SDS011;40838;50.676;7.838;2024-02-26T12:26:54;2.17;;;1.70;;
54935;SDS011;40838;50.676;7.838;2024-02-26T12:29:21;4.82;;;2.40;;
54935;SDS011;40838;50.676;7.838;2024-02-26T12:31:48;4.90;;;2.08;;
54935;SDS011;40838;50.676;7.838;2024-02-26T12:34:15;2.75;;;2.00;;
54935;SDS011;40838;50.676;7.838;2024-02-26T12:36:43;4.35;;;1.95;;
54935;SDS011;40838;50.676;7.838;2024-02-26T12:39:10;3.38;;;2.10;;
54935;SDS011;40838;50.676;7.838;2024-02-26T12:41:38;2.85;;;1.60;;
54935;SDS011;40838;50.676;7.838;2024-02-26T12:44:05;3.20;;;1.52;;
54935;SDS011;40838;50.676;7.838;2024-02-26T12:46:34;3.90;;;1.70;;
54935;SDS011;40838;50.676;7.838;2024-02-26T12:49:01;2.42;;;1.63;;
54935;SDS011;40838;50.676;7.838;2024-02-26T12:51:28;2.67;;;1.88;;
54935;SDS011;40838;50.676;7.838;2024-02-26T12:53:57;2.90;;;1.40;;
54935;SDS011;40838;50.676;7.838;2024-02-26T12:56:24;5.57;;;1.35;;
54935;SDS011;40838;50.676;7.838;2024-02-26T12:58:52;2.28;;;1.75;;
54935;SDS011;40838;50.676;7.838;2024-02-26T13:01:21;1.88;;;1.50;;
54935;SDS011;40838;50.676;7.838;2024-02-26T13:03:50;2.75;;;1.40;;
54935;SDS011;40838;50.676;7.838;2024-02-26T13:06:18;3.15;;;1.30;;
54935;SDS011;40838;50.676;7.838;2024-02-26T13:08:46;1.75;;;1.27;;
54935;SDS011;40838;50.676;7.838;2024-02-26T13:11:15;2.40;;;1.48;;
54935;SDS011;40838;50.676;7.838;2024-02-26T13:13:47;3.15;;;1.30;;
54935;SDS011;40838;50.676;7.838;2024-02-26T13:16:14;3.83;;;1.70;;
54935;SDS011;40838;50.676;7.838;2024-02-26T13:18:42;2.15;;;1.40;;
54935;SDS011;40838;50.676;7.838;2024-02-26T13:21:10;1.40;;;1.30;;
54935;SDS011;40838;50.676;7.838;2024-02-26T13:23:39;1.85;;;1.40;;
54935;SDS011;40838;50.676;7.838;2024-02-26T13:26:07;2.65;;;1.50;;
54935;SDS011;40838;50.676;7.838;2024-02-26T13:28:36;1.00;;;0.93;;
54935;SDS011;40838;50.676;7.838;2024-02-26T13:31:03;1.83;;;1.38;;
54935;SDS011;40838;50.676;7.838;2024-02-26T13:33:31;3.95;;;1.65;;
54935;SDS011;40838;50.676;7.838;2024-02-26T13:35:58;1.75;;;1.20;;
54935;SDS011;40838;50.676;7.838;2024-02-26T13:38:26;1.52;;;1.20;;
54935;SDS011;40838;50.676;7.838;2024-02-26T13:40:53;2.13;;;1.17;;
54935;SDS011;40838;50.676;7.838;2024-02-26T13:43:20;2.28;;;1.60;;
54935;SDS011;40838;50.676;7.838;2024-02-26T13:45:49;2.92;;;1.50;;
54935;SDS011;40838;50.676;7.838;2024-02-26T13:48:16;1.35;;;1.15;;
54935;SDS011;40838;50.676;7.838;2024-02-26T13:50:43;3.03;;;1.50;;
54935;SDS011;40838;50.676;7.838;2024-02-26T13:53:11;2.25;;;1.55;;
54935;SDS011;40838;50.676;7.838;2024-02-26T13:55:39;4.75;;;1.05;;
54935;SDS011;40838;50.676;7.838;2024-02-26T13:58:07;2.42;;;1.23;;
54935;SDS011;40838;50.676;7.838;2024-02-26T14:00:35;2.80;;;1.60;;
54935;SDS011;40838;50.676;7.838;2024-02-26T14:03:03;3.47;;;1.38;;
54935;SDS011;40838;50.676;7.838;2024-02-26T14:05:30;2.33;;;1.42;;
54935;SDS011;40838;50.676;7.838;2024-02-26T14:07:57;3.90;;;1.83;;
54935;SDS011;40838;50.676;7.838;2024-02-26T14:10:23;3.55;;;1.70;;
54935;SDS011;40838;50.676;7.838;2024-02-26T14:12:51;1.27;;;1.13;;
54935;SDS011;40838;50.676;7.838;2024-02-26T14:15:18;1.55;;;1.27;;
54935;SDS011;40838;50.676;7.838;2024-02-26T14:17:44;3.50;;;1.65;;
54935;SDS011;40838;50.676;7.838;2024-02-26T14:20:19;3.27;;;1.70;;
54935;SDS011;40838;50.676;7.838;2024-02-26T14:22:46;3.58;;;1.48;;
54935;SDS011;40838;50.676;7.838;2024-02-26T14:25:13;2.58;;;1.30;;
54935;SDS011;40838;50.676;7.838;2024-02-26T14:27:40;3.63;;;1.38;;
54935;SDS011;40838;50.676;7.838;2024-02-26T14:30:07;5.00;;;1.90;;
54935;SDS011;40838;50.676;7.838;2024-02-26T14:32:34;2.20;;;1.40;;
54935;SDS011;40838;50.676;7.838;2024-02-26T14:35:03;2.75;;;1.90;;
54935;SDS011;40838;50.676;7.838;2024-02-26T14:37:33;4.78;;;1.70;;
54935;SDS011;40838;50.676;7.838;2024-02-26T14:40:00;3.05;;;2.10;;
54935;SDS011;40838;50.676;7.838;2024-02-26T14:42:27;3.15;;;2.00;;
54935;SDS011;40838;50.676;7.838;2024-02-26T14:44:54;2.88;;;1.67;;
54935;SDS011;40838;50.676;7.838;2024-02-26T14:47:21;3.80;;;2.10;;
54935;SDS011;40838;50.676;7.838;2024-02-26T14:49:48;2.50;;;1.60;;
54935;SDS011;40838;50.676;7.838;2024-02-26T14:52:17;4.93;;;2.80;;
54935;SDS011;40838;50.676;7.838;2024-02-26T14:54:45;3.88;;;1.65;;
54935;SDS011;40838;50.676;7.838;2024-02-26T14:57:11;5.65;;;2.97;;